sensor_id;sensor_type;location;lat;lon;timestamp;pressure;altitude;pressure_sealevel;temperature;humidity
33496;BME280;19836;55.812;37.560;2023-05-19T19:42:05;100591.63;;;14.47;46.04
33496;BME280;19836;55.812;37.560;2023-05-19T19:44:31;100589.13;;;14.41;46.00
33496;BME280;19836;55.812;37.560;2023-05-19T19:46:57;100597.25;;;14.40;46.32
33496;BME280;19836;55.812;37.560;2023-05-19T19:49:23;100595.44;;;14.40;46.32
33496;BME280;19836;55.812;37.560;2023-05-19T19:51:49;100590.16;;;14.37;46.73
33496;BME280;19836;55.812;37.560;2023-05-19T19:54:16;100593.81;;;14.35;46.73
33496;BME280;19836;55.812;37.560;2023-05-19T19:56:42;100602.94;;;14.31;46.59
33496;BME280;19836;55.812;37.560;2023-05-19T19:59:09;100604.00;;;14.25;46.93
33496;BME280;19836;55.812;37.560;2023-05-19T20:01:35;100603.25;;;14.20;46.96
33496;BME280;19836;55.812;37.560;2023-05-19T20:04:03;100599.78;;;14.15;47.00
33496;BME280;19836;55.812;37.560;2023-05-19T20:06:29;100601.75;;;14.10;47.25
33496;BME280;19836;55.812;37.560;2023-05-19T20:08:58;100607.44;;;14.01;47.10
33496;BME280;19836;55.812;37.560;2023-05-19T20:11:24;100611.34;;;13.91;47.58
33496;BME280;19836;55.812;37.560;2023-05-19T20:13:52;100605.25;;;13.85;47.45
33496;BME280;19836;55.812;37.560;2023-05-19T20:16:18;100608.16;;;13.77;47.75
33496;BME280;19836;55.812;37.560;2023-05-19T20:18:44;100602.06;;;13.71;47.90
33496;BME280;19836;55.812;37.560;2023-05-19T20:21:10;100610.19;;;13.69;47.94
33496;BME280;19836;55.812;37.560;2023-05-19T20:23:36;100611.06;;;13.70;47.93
33496;BME280;19836;55.812;37.560;2023-05-19T20:26:04;100609.44;;;13.64;48.08
33496;BME280;19836;55.812;37.560;2023-05-19T20:28:30;100610.44;;;13.60;47.91
33496;BME280;19836;55.812;37.560;2023-05-19T20:30:56;100616.75;;;13.59;48.18
33496;BME280;19836;55.812;37.560;2023-05-19T20:33:22;100615.75;;;13.63;47.86
33496;BME280;19836;55.812;37.560;2023-05-19T20:35:49;100611.25;;;13.64;47.96
33496;BME280;19836;55.812;37.560;2023-05-19T20:38:15;100628.44;;;13.60;47.75
33496;BME280;19836;55.812;37.560;2023-05-19T20:40:41;100615.94;;;13.57;47.79
33496;BME280;19836;55.812;37.560;2023-05-19T20:43:07;100632.88;;;13.61;47.36
33496;BME280;19836;55.812;37.560;2023-05-19T20:45:33;100621.75;;;13.73;47.89
33496;BME280;19836;55.812;37.560;2023-05-19T20:47:59;100622.47;;;13.79;47.60
33496;BME280;19836;55.812;37.560;2023-05-19T20:50:30;100625.28;;;13.75;47.29
33496;BME280;19836;55.812;37.560;2023-05-19T20:52:56;100631.66;;;13.72;47.36
33496;BME280;19836;55.812;37.560;2023-05-19T20:55:29;100619.94;;;13.73;47.61
33496;BME280;19836;55.812;37.560;2023-05-19T20:57:55;100627.06;;;13.76;47.54
33496;BME280;19836;55.812;37.560;2023-05-19T21:00:21;100626.16;;;13.75;47.45
33496;BME280;19836;55.812;37.560;2023-05-19T21:02:47;100624.41;;;13.74;47.84
33496;BME280;19836;55.812;37.560;2023-05-19T21:05:13;100628.81;;;13.77;47.43
33496;BME280;19836;55.812;37.560;2023-05-19T21:07:39;100631.47;;;13.78;47.93
33496;BME280;19836;55.812;37.560;2023-05-19T21:10:05;100629.59;;;13.80;47.74
33496;BME280;19836;55.812;37.560;2023-05-19T21:12:31;100632.22;;;13.83;47.89
33496;BME280;19836;55.812;37.560;2023-05-19T21:14:59;100620.50;;;13.84;48.00
33496;BME280;19836;55.812;37.560;2023-05-19T21:17:26;100626.59;;;13.91;47.66
33496;BME280;19836;55.812;37.560;2023-05-19T21:19:52;100630.94;;;13.96;47.91
33496;BME280;19836;55.812;37.560;2023-05-19T21:22:23;100632.78;;;13.94;48.18
33496;BME280;19836;55.812;37.560;2023-05-19T21:24:49;100623.94;;;13.89;47.83
33496;BME280;19836;55.812;37.560;2023-05-19T21:27:15;100623.25;;;13.83;47.58
33496;BME280;19836;55.812;37.560;2023-05-19T21:29:40;100627.88;;;13.78;47.74
33496;BME280;19836;55.812;37.560;2023-05-19T21:32:06;100627.00;;;13.77;47.97
33496;BME280;19836;55.812;37.560;2023-05-19T21:34:32;100618.94;;;13.77;48.22
33496;BME280;19836;55.812;37.560;2023-05-19T21:36:58;100627.81;;;13.81;47.73
33496;BME280;19836;55.812;37.560;2023-05-19T21:39:24;100629.53;;;13.83;47.99
33496;BME280;19836;55.812;37.560;2023-05-19T21:41:50;100621.41;;;13.85;47.92
33496;BME280;19836;55.812;37.560;2023-05-19T21:44:16;100631.09;;;13.90;47.78
33496;BME280;19836;55.812;37.560;2023-05-19T21:46:42;100626.78;;;13.85;48.03
33496;BME280;19836;55.812;37.560;2023-05-19T21:49:08;100634.19;;;13.77;48.32
33496;BME280;19836;55.812;37.560;2023-05-19T21:51:34;100630.50;;;13.81;48.27
33496;BME280;19836;55.812;37.560;2023-05-19T21:54:01;100626.00;;;13.81;48.48
33496;BME280;19836;55.812;37.560;2023-05-19T21:56:28;100638.53;;;13.82;48.27
33496;BME280;19836;55.812;37.560;2023-05-19T21:58:54;100623.34;;;13.80;48.63
33496;BME280;19836;55.812;37.560;2023-05-19T22:01:20;100622.56;;;13.76;48.61
33496;BME280;19836;55.812;37.560;2023-05-19T22:03:47;100623.38;;;13.78;48.51
33496;BME280;19836;55.812;37.560;2023-05-19T22:06:13;100620.78;;;13.75;48.58
33496;BME280;19836;55.812;37.560;2023-05-19T22:08:39;100617.19;;;13.76;48.68
33496;BME280;19836;55.812;37.560;2023-05-19T22:11:05;100624.28;;;13.79;48.79
33496;BME280;19836;55.812;37.560;2023-05-19T22:13:31;100625.28;;;13.75;48.77
33496;BME280;19836;55.812;37.560;2023-05-19T22:16:02;100617.25;;;13.73;48.79
33496;BME280;19836;55.812;37.560;2023-05-19T22:18:29;100622.81;;;13.67;48.83
33496;BME280;19836;55.812;37.560;2023-05-19T22:20:55;100627.41;;;13.64;48.94
33496;BME280;19836;55.812;37.560;2023-05-19T22:23:23;100629.97;;;13.68;49.06
33496;BME280;19836;55.812;37.560;2023-05-19T22:25:49;100630.78;;;13.70;49.03
33496;BME280;19836;55.812;37.560;2023-05-19T22:28:15;100628.09;;;13.70;48.80
33496;BME280;19836;55.812;37.560;2023-05-19T22:30:41;100628.91;;;13.74;49.09
33496;BME280;19836;55.812;37.560;2023-05-19T22:33:09;100626.16;;;13.75;48.94
33496;BME280;19836;55.812;37.560;2023-05-19T22:35:35;100625.25;;;13.76;48.84
33496;BME280;19836;55.812;37.560;2023-05-19T22:38:01;100628.81;;;13.77;48.86
33496;BME280;19836;55.812;37.560;2023-05-19T22:40:27;100620.69;;;13.78;48.65
33496;BME280;19836;55.812;37.560;2023-05-19T22:42:53;100622.56;;;13.76;48.81
33496;BME280;19836;55.812;37.560;2023-05-19T22:45:19;100627.06;;;13.76;48.39
33496;BME280;19836;55.812;37.560;2023-05-19T22:47:45;100625.28;;;13.75;48.74
33496;BME280;19836;55.812;37.560;2023-05-19T22:50:12;100622.59;;;13.75;48.59
33496;BME280;19836;55.812;37.560;2023-05-19T22:52:39;100618.03;;;13.77;48.69
33496;BME280;19836;55.812;37.560;2023-05-19T22:55:05;100621.63;;;13.77;48.85
33496;BME280;19836;55.812;37.560;2023-05-19T22:57:31;100622.72;;;13.70;48.43
33496;BME280;19836;55.812;37.560;2023-05-19T22:59:57;100619.34;;;13.64;48.71
33496;BME280;19836;55.812;37.560;2023-05-19T23:02:23;100616.72;;;13.61;48.73
33496;BME280;19836;55.812;37.560;2023-05-19T23:04:49;100620.34;;;13.60;48.76
33496;BME280;19836;55.812;37.560;2023-05-19T23:07:15;100616.75;;;13.59;48.74
33496;BME280;19836;55.812;37.560;2023-05-19T23:09:41;100618.47;;;13.62;48.70
33496;BME280;19836;55.812;37.560;2023-05-19T23:12:06;100617.69;;;13.58;48.50
33496;BME280;19836;55.812;37.560;2023-05-19T23:14:32;100619.56;;;13.56;48.49
33496;BME280;19836;55.812;37.560;2023-05-19T23:16:58;100615.94;;;13.57;48.38
33496;BME280;19836;55.812;37.560;2023-05-19T23:19:24;100616.69;;;13.62;48.26
33496;BME280;19836;55.812;37.560;2023-05-19T23:21:50;100617.63;;;13.61;48.22
33496;BME280;19836;55.812;37.560;2023-05-19T23:24:16;100614.84;;;13.63;48.48
33496;BME280;19836;55.812;37.560;2023-05-19T23:26:42;100613.84;;;13.67;48.40
33496;BME280;19836;55.812;37.560;2023-05-19T23:29:12;100604.91;;;13.66;48.13
33496;BME280;19836;55.812;37.560;2023-05-19T23:31:39;100617.69;;;13.58;48.15
33496;BME280;19836;55.812;37.560;2023-05-19T23:34:06;100612.50;;;13.52;48.15
33496;BME280;19836;55.812;37.560;2023-05-19T23:36:32;100609.75;;;13.54;48.19
33496;BME280;19836;55.812;37.560;2023-05-19T23:38:59;100609.69;;;13.55;48.06
33496;BME280;19836;55.812;37.560;2023-05-19T23:41:25;100603.28;;;13.59;47.99
33496;BME280;19836;55.812;37.560;2023-05-19T23:43:51;100600.56;;;13.61;47.90
33496;BME280;19836;55.812;37.560;2023-05-19T23:46:17;100604.97;;;13.63;47.83
33496;BME280;19836;55.812;37.560;2023-05-19T23:48:43;100598.75;;;13.61;47.52
33496;BME280;19836;55.812;37.560;2023-05-19T23:51:08;100599.59;;;13.63;47.66
33496;BME280;19836;55.812;37.560;2023-05-19T23:53:34;100589.75;;;13.62;47.41
33496;BME280;19836;55.812;37.560;2023-05-19T23:56:00;100595.97;;;13.64;47.66
33496;BME280;19836;55.812;37.560;2023-05-19T23:58:26;100597.72;;;13.65;47.37
